createdAt,value
2022-11-09T00:00:04.497Z,13.59
2022-11-09T00:01:04.558Z,13.62
2022-11-09T00:02:04.494Z,13.62
2022-11-09T00:03:04.511Z,13.60
2022-11-09T00:04:04.515Z,13.60
2022-11-09T00:05:04.486Z,13.57
2022-11-09T00:06:04.490Z,13.54
2022-11-09T00:07:04.548Z,13.52
2022-11-09T00:08:04.489Z,13.49
2022-11-09T00:09:07.899Z,13.52
2022-11-09T00:10:04.542Z,13.51
2022-11-09T00:11:04.487Z,13.48
2022-11-09T00:12:04.498Z,13.48
2022-11-09T00:13:04.497Z,13.51
2022-11-09T00:14:04.501Z,13.49
2022-11-09T00:15:04.499Z,13.51
2022-11-09T00:16:04.500Z,13.54
2022-11-09T00:17:04.573Z,13.51
2022-11-09T00:18:04.495Z,13.49
2022-11-09T00:19:04.515Z,13.48
2022-11-09T00:20:04.473Z,13.39
2022-11-09T00:21:04.491Z,13.39
2022-11-09T00:22:04.588Z,13.46
2022-11-09T00:23:07.111Z,13.39
2022-11-09T00:24:04.486Z,13.39
2022-11-09T00:25:04.487Z,13.39
2022-11-09T00:26:04.493Z,13.48
2022-11-09T00:27:05.114Z,13.36
2022-11-09T00:28:06.620Z,13.36
2022-11-09T00:29:06.329Z,13.45
2022-11-09T00:30:06.111Z,13.41
2022-11-09T00:31:04.566Z,13.39
2022-11-09T00:32:05.113Z,13.44
2022-11-09T00:33:05.113Z,13.42
2022-11-09T00:34:04.481Z,13.48
2022-11-09T00:35:04.641Z,13.46
2022-11-09T00:36:04.555Z,13.44
2022-11-09T00:37:04.666Z,13.41
2022-11-09T00:38:05.710Z,13.45
2022-11-09T00:39:04.520Z,13.45
2022-11-09T00:40:04.473Z,13.36
2022-11-09T00:41:04.473Z,13.25
2022-11-09T00:42:04.505Z,13.29
2022-11-09T00:43:04.499Z,13.29
2022-11-09T00:44:04.457Z,13.39
2022-11-09T00:45:04.455Z,13.28
2022-11-09T00:46:04.497Z,13.28
2022-11-09T00:47:04.527Z,13.30
2022-11-09T00:48:04.533Z,13.36
2022-11-09T00:49:04.464Z,13.33
2022-11-09T00:50:05.650Z,13.32
2022-11-09T00:51:05.116Z,13.32
2022-11-09T00:52:04.639Z,13.38
2022-11-09T00:53:05.200Z,13.29
2022-11-09T00:54:05.123Z,13.32
2022-11-09T00:55:05.141Z,13.29
2022-11-09T00:56:05.123Z,13.30
2022-11-09T00:57:06.126Z,13.32
2022-11-09T00:58:04.581Z,13.25
2022-11-09T00:59:05.728Z,13.29
2022-11-09T01:00:08.144Z,13.28
2022-11-09T01:01:04.578Z,13.25
2022-11-09T01:02:05.128Z,13.26
2022-11-09T01:03:05.121Z,13.30
2022-11-09T01:04:04.545Z,13.29
2022-11-09T01:05:06.125Z,13.25
2022-11-09T01:06:04.539Z,13.17
2022-11-09T01:07:06.180Z,13.26
2022-11-09T01:08:05.637Z,13.19
2022-11-09T01:09:04.571Z,13.20
2022-11-09T01:10:05.128Z,13.23
2022-11-09T01:11:05.124Z,13.23
2022-11-09T01:12:04.472Z,13.25
2022-11-09T01:13:04.519Z,13.15
2022-11-09T01:14:05.127Z,13.19
2022-11-09T01:15:04.624Z,13.10
2022-11-09T01:16:04.474Z,13.11
2022-11-09T01:17:04.451Z,13.12
2022-11-09T01:18:04.450Z,13.10
2022-11-09T01:19:04.445Z,13.10
2022-11-09T01:20:04.458Z,13.10
2022-11-09T01:21:04.443Z,13.01
2022-11-09T01:22:04.443Z,12.96
2022-11-09T01:23:04.451Z,12.96
2022-11-09T01:24:04.435Z,12.92
2022-11-09T01:25:04.474Z,12.93
2022-11-09T01:26:04.443Z,12.90
2022-11-09T01:27:04.427Z,12.86
2022-11-09T01:28:04.417Z,12.86
2022-11-09T01:29:04.476Z,12.75
2022-11-09T01:30:04.447Z,12.78
2022-11-09T01:31:05.632Z,12.82
2022-11-09T01:32:04.471Z,12.74
2022-11-09T01:33:04.637Z,12.75
2022-11-09T01:34:05.938Z,12.67
2022-11-09T01:35:07.136Z,12.75
2022-11-09T01:36:07.151Z,12.74
2022-11-09T01:37:06.154Z,12.67
2022-11-09T01:38:04.660Z,12.64
2022-11-09T01:39:06.640Z,12.62
2022-11-09T01:40:04.546Z,12.64
2022-11-09T01:41:05.765Z,12.67
2022-11-09T01:42:05.635Z,12.67
2022-11-09T01:43:09.656Z,12.65
2022-11-09T01:44:08.655Z,12.59
2022-11-09T01:45:05.640Z,12.60
2022-11-09T01:46:05.642Z,12.56
2022-11-09T01:47:05.355Z,12.65
2022-11-09T01:48:05.446Z,12.56
2022-11-09T01:49:04.444Z,12.56
2022-11-09T01:50:05.148Z,12.47
2022-11-09T01:51:05.143Z,12.46
2022-11-09T01:52:04.572Z,12.32
2022-11-09T01:53:05.136Z,12.47
2022-11-09T01:54:05.151Z,12.35
2022-11-09T01:55:04.663Z,12.37
2022-11-09T01:56:05.452Z,12.35
2022-11-09T01:57:05.371Z,12.32
2022-11-09T01:58:04.551Z,12.35
2022-11-09T01:59:08.676Z,12.37
2022-11-09T02:00:06.170Z,12.32
2022-11-09T02:01:23.208Z,12.31
2022-11-09T02:02:05.670Z,12.38
2022-11-09T02:03:04.505Z,12.38
2022-11-09T02:04:07.669Z,12.42
2022-11-09T02:05:05.226Z,12.34
2022-11-09T02:06:04.520Z,12.32
2022-11-09T02:07:04.589Z,12.37
2022-11-09T02:08:05.484Z,12.34
2022-11-09T02:09:04.528Z,12.39
2022-11-09T02:10:04.641Z,12.34
2022-11-09T02:11:05.540Z,12.32
2022-11-09T02:12:09.143Z,12.28
2022-11-09T02:13:04.436Z,12.31
2022-11-09T02:14:05.373Z,12.28
2022-11-09T02:15:04.460Z,12.29
2022-11-09T02:16:05.289Z,12.23
2022-11-09T02:17:07.148Z,12.19
2022-11-09T02:18:05.163Z,12.21
2022-11-09T02:19:04.585Z,12.17
2022-11-09T02:20:07.147Z,12.19
2022-11-09T02:21:04.517Z,12.16
2022-11-09T02:22:04.470Z,12.19
2022-11-09T02:23:04.422Z,12.09
2022-11-09T02:27:11.519Z,12.09
2022-11-09T02:28:11.508Z,12.07
2022-11-09T02:29:11.510Z,12.02
2022-11-09T02:30:11.508Z,12.05
2022-11-09T02:31:11.511Z,12.07
2022-11-09T02:32:11.516Z,12.07
2022-11-09T02:33:11.506Z,12.07
2022-11-09T02:34:11.498Z,11.99
2022-11-09T02:35:11.503Z,12.10
2022-11-09T02:36:11.516Z,11.99
2022-11-09T02:37:11.498Z,12.04
2022-11-09T02:38:11.530Z,11.96
2022-11-09T02:39:11.483Z,12.10
2022-11-09T02:40:11.496Z,12.02
2022-11-09T02:41:11.484Z,12.02
2022-11-09T02:42:11.557Z,11.98
2022-11-09T02:43:11.501Z,12.05
2022-11-09T02:44:11.513Z,12.04
2022-11-09T02:45:11.528Z,12.02
2022-11-09T02:46:11.491Z,12.04
2022-11-09T02:47:11.488Z,11.98
2022-11-09T02:48:11.474Z,11.99
2022-11-09T02:49:11.487Z,11.96
2022-11-09T02:50:12.208Z,12.02
2022-11-09T02:51:11.545Z,11.99
2022-11-09T02:52:12.601Z,11.96
2022-11-09T02:53:11.538Z,11.91
2022-11-09T02:54:12.298Z,11.86
2022-11-09T02:55:11.494Z,11.83
2022-11-09T02:56:12.103Z,11.90
2022-11-09T02:57:11.485Z,11.94
2022-11-09T02:58:11.704Z,11.95
2022-11-09T02:59:13.113Z,11.98
2022-11-09T03:00:13.614Z,11.99
2022-11-09T03:01:11.768Z,11.99
2022-11-09T03:02:18.129Z,11.96
2022-11-09T03:03:13.631Z,11.98
2022-11-09T03:04:16.625Z,12.02
2022-11-09T03:05:12.947Z,11.98
2022-11-09T03:06:13.154Z,11.99
2022-11-09T03:07:16.732Z,11.98
2022-11-09T03:08:12.109Z,11.96
2022-11-09T03:09:12.686Z,12.02
2022-11-09T03:10:11.790Z,12.01
2022-11-09T03:12:15.627Z,11.98
2022-11-09T03:13:11.491Z,11.99
2022-11-09T03:14:11.553Z,12.07
2022-11-09T03:15:11.555Z,12.05
2022-11-09T03:16:11.495Z,12.09
2022-11-09T03:17:11.534Z,12.13
2022-11-09T03:18:11.706Z,12.20
2022-11-09T03:19:12.112Z,12.19
2022-11-09T03:20:11.529Z,12.20
2022-11-09T03:21:11.509Z,12.28
2022-11-09T03:22:11.500Z,12.16
2022-11-09T03:23:11.515Z,12.23
2022-11-09T03:24:12.118Z,12.21
2022-11-09T03:25:11.515Z,12.23
2022-11-09T03:26:11.510Z,12.24
2022-11-09T03:27:11.444Z,12.19
2022-11-09T03:28:11.552Z,12.28
2022-11-09T03:29:11.555Z,12.21
2022-11-09T03:30:12.253Z,12.27
2022-11-09T03:31:12.126Z,12.27
2022-11-09T03:32:11.622Z,12.34
2022-11-09T03:33:12.119Z,12.32
2022-11-09T03:34:11.687Z,12.32
2022-11-09T03:35:12.133Z,12.32
2022-11-09T03:36:12.626Z,12.35
2022-11-09T03:37:11.693Z,12.32
2022-11-09T03:38:13.625Z,12.38
2022-11-09T03:39:12.116Z,12.35
2022-11-09T03:40:13.125Z,12.38
2022-11-09T03:41:15.127Z,12.41
2022-11-09T03:42:11.615Z,12.38
2022-11-09T03:43:11.580Z,12.49
2022-11-09T03:44:11.542Z,12.46
2022-11-09T03:45:12.737Z,12.45
2022-11-09T03:46:12.116Z,12.42
2022-11-09T03:47:11.580Z,12.49
2022-11-09T03:48:11.638Z,12.38
2022-11-09T03:49:11.494Z,12.47
2022-11-09T03:50:11.414Z,12.50
2022-11-09T03:51:11.504Z,12.47
2022-11-09T03:52:11.405Z,12.49
2022-11-09T03:53:11.428Z,12.47
2022-11-09T03:54:11.463Z,12.42
2022-11-09T03:55:11.406Z,12.45
2022-11-09T03:56:11.424Z,12.46
2022-11-09T03:57:11.584Z,12.46
2022-11-09T03:58:11.512Z,12.56
2022-11-09T03:59:11.413Z,12.53
2022-11-09T04:00:11.408Z,12.57
2022-11-09T04:01:11.433Z,12.57
2022-11-09T04:02:11.494Z,12.59
2022-11-09T04:03:11.450Z,12.62
2022-11-09T04:04:11.388Z,12.68
2022-11-09T04:05:11.402Z,12.71
2022-11-09T04:06:11.398Z,12.62
2022-11-09T04:07:11.441Z,12.75
2022-11-09T04:08:11.434Z,12.75
2022-11-09T04:09:11.407Z,12.77
2022-11-09T04:10:11.383Z,12.83
2022-11-09T04:11:11.411Z,12.78
2022-11-09T04:12:11.393Z,12.86
2022-11-09T04:13:11.392Z,12.90
2022-11-09T04:14:11.394Z,12.92
2022-11-09T04:15:11.410Z,12.89
2022-11-09T04:16:11.385Z,12.96
2022-11-09T04:17:11.440Z,12.96
2022-11-09T04:18:11.370Z,12.96
2022-11-09T04:19:11.403Z,12.92
2022-11-09T04:20:11.400Z,13.05
2022-11-09T04:21:11.370Z,13.07
2022-11-09T04:22:11.375Z,13.05
2022-11-09T04:23:11.515Z,13.04
2022-11-09T04:24:11.393Z,13.08
2022-11-09T04:25:11.406Z,13.10
2022-11-09T04:26:11.386Z,12.96
2022-11-09T04:27:11.378Z,13.10
2022-11-09T04:28:11.366Z,13.04
2022-11-09T04:29:11.396Z,12.96
2022-11-09T04:30:11.357Z,13.03
2022-11-09T04:31:11.371Z,13.04
2022-11-09T04:32:11.365Z,13.04
2022-11-09T04:33:12.131Z,13.04
2022-11-09T04:34:11.361Z,13.01
2022-11-09T04:35:11.397Z,12.97
2022-11-09T04:36:11.436Z,13.04
2022-11-09T04:37:11.358Z,12.95
2022-11-09T04:38:11.403Z,12.93
2022-11-09T04:39:11.399Z,12.92
2022-11-09T04:40:11.394Z,12.92
2022-11-09T04:41:11.373Z,12.90
2022-11-09T04:42:11.451Z,12.93
2022-11-09T04:43:11.363Z,12.92
2022-11-09T04:44:11.469Z,12.92
2022-11-09T04:45:12.139Z,12.89
2022-11-09T04:46:11.384Z,12.82
2022-11-09T04:47:11.368Z,12.79
2022-11-09T04:48:11.434Z,12.79
2022-11-09T04:49:11.509Z,12.79
2022-11-09T04:50:11.745Z,12.77
2022-11-09T04:51:14.642Z,12.71
2022-11-09T04:52:11.365Z,12.83
2022-11-09T04:53:11.393Z,12.75
2022-11-09T04:54:11.344Z,12.75
2022-11-09T04:55:12.360Z,12.78
2022-11-09T04:56:11.349Z,12.71
2022-11-09T04:57:11.352Z,12.77
2022-11-09T04:58:11.454Z,12.74
2022-11-09T04:59:12.148Z,12.70
2022-11-09T05:00:11.429Z,12.78
2022-11-09T05:03:13.426Z,12.77
2022-11-09T05:04:12.216Z,12.79
2022-11-09T05:05:14.143Z,12.83
2022-11-09T05:06:11.395Z,12.82
2022-11-09T05:07:11.539Z,12.83
2022-11-09T05:08:11.390Z,12.89
2022-11-09T05:09:11.324Z,12.82
2022-11-09T05:10:11.320Z,12.86
2022-11-09T05:11:11.319Z,12.87
2022-11-09T05:12:11.331Z,12.86
2022-11-09T05:13:11.330Z,12.89
2022-11-09T05:14:11.359Z,12.89
2022-11-09T05:15:11.361Z,12.82
2022-11-09T05:16:11.334Z,12.82
2022-11-09T05:17:11.325Z,12.79
2022-11-09T05:18:11.334Z,12.83
2022-11-09T05:19:11.307Z,12.79
2022-11-09T05:20:11.342Z,12.82
2022-11-09T05:21:11.322Z,12.83
2022-11-09T05:22:11.332Z,12.83
2022-11-09T05:23:11.314Z,12.89
2022-11-09T05:24:11.337Z,12.85
2022-11-09T05:25:11.315Z,12.78
2022-11-09T05:26:11.325Z,12.85
2022-11-09T05:27:11.325Z,12.85
2022-11-09T05:28:11.325Z,12.79
2022-11-09T05:29:11.327Z,12.85
2022-11-09T05:30:11.354Z,12.82
2022-11-09T05:31:11.481Z,12.82
2022-11-09T05:32:11.308Z,12.78
2022-11-09T05:33:11.307Z,12.90
2022-11-09T05:34:11.357Z,12.90
2022-11-09T05:35:11.320Z,12.87
2022-11-09T05:36:11.293Z,12.93
2022-11-09T05:37:11.313Z,12.92
2022-11-09T05:38:11.304Z,12.89
2022-11-09T05:39:11.304Z,12.87
2022-11-09T05:40:11.320Z,12.95
2022-11-09T05:41:11.309Z,12.92
2022-11-09T05:42:11.343Z,12.92
2022-11-09T05:43:11.331Z,12.90
2022-11-09T05:44:11.287Z,12.90
2022-11-09T05:45:40.162Z,12.96
2022-11-09T05:46:11.302Z,12.89
2022-11-09T05:47:13.210Z,12.95
2022-11-09T05:48:11.282Z,12.90
2022-11-09T05:49:11.484Z,12.96
2022-11-09T05:50:12.235Z,13.05
2022-11-09T05:51:11.299Z,13.01
2022-11-09T05:52:18.855Z,13.08
2022-11-09T05:53:11.276Z,13.03
2022-11-09T05:54:12.298Z,13.00
2022-11-09T05:55:11.332Z,13.00
2022-11-09T05:56:11.291Z,12.95
2022-11-09T05:57:11.290Z,12.92
2022-11-09T05:58:11.267Z,12.95
2022-11-09T05:59:12.002Z,12.96
2022-11-09T06:00:11.393Z,12.97
2022-11-09T06:01:11.275Z,12.95
2022-11-09T06:02:11.336Z,12.95
2022-11-09T06:03:11.282Z,12.92
2022-11-09T06:04:11.276Z,12.95
2022-11-09T06:05:11.294Z,12.93
2022-11-09T06:06:11.266Z,12.85
2022-11-09T06:07:11.345Z,12.92
2022-11-09T06:08:11.277Z,12.93
2022-11-09T06:09:11.281Z,12.89
2022-11-09T06:10:11.293Z,12.93
2022-11-09T06:11:11.367Z,12.95
2022-11-09T06:12:11.327Z,12.92
2022-11-09T06:13:11.278Z,12.89
2022-11-09T06:14:11.273Z,12.90
2022-11-09T06:15:12.368Z,12.93
2022-11-09T06:16:11.274Z,12.89
2022-11-09T06:17:11.272Z,12.95
2022-11-09T06:18:11.283Z,12.93
2022-11-09T06:19:11.414Z,12.92
2022-11-09T06:20:11.257Z,12.96
2022-11-09T06:21:11.268Z,12.93
2022-11-09T06:22:11.269Z,12.92
2022-11-09T06:23:11.276Z,12.95
2022-11-09T06:24:11.317Z,12.95
2022-11-09T06:25:11.263Z,12.95
2022-11-09T06:26:11.243Z,12.93
2022-11-09T06:27:11.246Z,13.00
2022-11-09T06:28:11.256Z,13.04
2022-11-09T06:29:11.252Z,13.03
2022-11-09T06:30:11.271Z,13.07
2022-11-09T06:31:11.249Z,13.03
2022-11-09T06:32:11.320Z,12.97
2022-11-09T06:33:11.250Z,13.04
2022-11-09T06:34:11.257Z,13.03
2022-11-09T06:35:11.315Z,13.04
2022-11-09T06:36:11.385Z,13.05
2022-11-09T06:37:11.248Z,13.11
2022-11-09T06:38:11.251Z,13.14
2022-11-09T06:39:11.229Z,13.04
2022-11-09T06:40:11.248Z,13.11
2022-11-09T06:41:11.259Z,13.10
2022-11-09T06:42:11.322Z,13.05
2022-11-09T06:43:11.251Z,13.17
2022-11-09T06:44:11.240Z,13.11
2022-11-09T06:45:11.242Z,13.11
2022-11-09T06:46:11.268Z,13.12
2022-11-09T06:47:11.264Z,13.12
2022-11-09T06:48:11.225Z,13.15
2022-11-09T06:49:11.218Z,13.28
2022-11-09T06:50:11.234Z,13.15
2022-11-09T06:51:11.217Z,13.12
2022-11-09T06:52:11.240Z,13.19
2022-11-09T06:53:11.222Z,13.17
2022-11-09T06:54:11.718Z,13.17
2022-11-09T06:55:11.299Z,13.19
2022-11-09T06:56:11.225Z,13.25
2022-11-09T06:57:11.256Z,13.19
2022-11-09T06:58:11.226Z,13.22
2022-11-09T06:59:11.783Z,13.29
2022-11-09T07:00:11.226Z,13.28
2022-11-09T07:01:11.254Z,13.29
2022-11-09T07:02:11.265Z,13.25
2022-11-09T07:03:11.216Z,13.25
2022-11-09T07:04:11.231Z,13.28
2022-11-09T07:05:11.205Z,13.23
2022-11-09T07:06:11.292Z,13.23
2022-11-09T07:07:11.269Z,13.25
2022-11-09T07:08:11.227Z,13.25
2022-11-09T07:09:11.211Z,13.30
2022-11-09T07:10:11.233Z,13.25
2022-11-09T07:11:11.207Z,13.25
2022-11-09T07:12:11.312Z,13.23
2022-11-09T07:13:11.226Z,13.22
2022-11-09T07:14:11.241Z,13.15
2022-11-09T07:15:11.445Z,13.11
2022-11-09T07:16:11.218Z,13.12
2022-11-09T07:17:11.215Z,13.19
2022-11-09T07:18:11.223Z,13.11
2022-11-09T07:19:11.227Z,13.11
2022-11-09T07:20:11.199Z,13.11
2022-11-09T07:21:14.350Z,13.10
2022-11-09T07:22:11.231Z,13.04
2022-11-09T07:23:11.208Z,12.97
2022-11-09T07:24:11.240Z,12.92
2022-11-09T07:25:11.244Z,12.93
2022-11-09T07:26:11.365Z,12.92
2022-11-09T07:27:11.222Z,12.92
2022-11-09T07:28:11.204Z,12.93
2022-11-09T07:29:11.207Z,12.90
2022-11-09T07:30:11.274Z,12.92
2022-11-09T07:31:11.207Z,12.92
2022-11-09T07:32:11.826Z,12.89
2022-11-09T07:33:11.256Z,12.87
2022-11-09T07:34:11.209Z,12.93
2022-11-09T07:35:11.300Z,12.90
2022-11-09T07:36:11.273Z,12.90
2022-11-09T07:37:11.202Z,12.90
2022-11-09T07:38:11.264Z,12.87
2022-11-09T07:39:11.203Z,12.90
2022-11-09T07:40:11.204Z,12.83
2022-11-09T07:41:11.237Z,12.83
2022-11-09T07:42:11.260Z,12.77
2022-11-09T07:43:11.190Z,12.77
2022-11-09T07:44:13.233Z,12.74
2022-11-09T07:45:11.260Z,12.71
2022-11-09T07:46:11.189Z,12.65
2022-11-09T07:47:14.492Z,12.79
2022-11-09T07:48:11.197Z,12.79
2022-11-09T07:49:11.202Z,12.74
2022-11-09T07:50:11.279Z,12.77
2022-11-09T07:51:11.193Z,12.82
2022-11-09T07:52:11.185Z,12.71
2022-11-09T07:53:11.176Z,12.78
2022-11-09T07:54:11.171Z,12.83
2022-11-09T07:55:11.180Z,12.72
2022-11-09T07:56:11.167Z,12.72
2022-11-09T07:57:11.183Z,12.71
2022-11-09T07:58:11.165Z,12.72
2022-11-09T07:59:11.282Z,12.74
2022-11-09T08:00:11.176Z,12.75
2022-11-09T08:01:11.186Z,12.78
2022-11-09T08:02:11.246Z,12.75
2022-11-09T08:03:11.196Z,12.68
2022-11-09T08:04:11.150Z,12.68
2022-11-09T08:05:11.163Z,12.75
2022-11-09T08:06:17.141Z,12.71
2022-11-09T08:07:11.170Z,12.74
2022-11-09T08:08:11.168Z,12.72
2022-11-09T08:09:11.215Z,12.77
2022-11-09T08:10:11.148Z,12.75
2022-11-09T08:11:11.165Z,12.79
2022-11-09T08:12:11.158Z,12.78
2022-11-09T08:13:11.182Z,12.75
2022-11-09T08:14:11.204Z,12.72
2022-11-09T08:15:11.248Z,12.82
2022-11-09T08:16:11.167Z,12.74
2022-11-09T08:17:11.134Z,12.77
2022-11-09T08:18:11.220Z,12.67
2022-11-09T08:19:11.171Z,12.67
2022-11-09T08:20:11.150Z,12.60
2022-11-09T08:21:11.141Z,12.74
2022-11-09T08:22:11.138Z,12.67
2022-11-09T08:23:11.160Z,12.67
2022-11-09T08:24:11.155Z,12.67
2022-11-09T08:25:11.147Z,12.71
2022-11-09T08:26:11.138Z,12.77
2022-11-09T08:27:11.134Z,12.75
2022-11-09T08:28:14.757Z,12.77
2022-11-09T08:29:11.152Z,12.65
2022-11-09T08:30:11.130Z,12.72
2022-11-09T08:31:11.134Z,12.70
2022-11-09T08:32:11.119Z,12.75
2022-11-09T08:33:11.207Z,12.79
2022-11-09T08:34:11.147Z,12.74
2022-11-09T08:35:11.147Z,12.72
2022-11-09T08:36:11.128Z,12.77
2022-11-09T08:37:11.161Z,12.75
2022-11-09T08:38:11.127Z,12.72
2022-11-09T08:39:11.138Z,12.75
2022-11-09T08:40:11.169Z,12.79
2022-11-09T08:41:13.639Z,12.77
2022-11-09T08:42:11.162Z,12.78
2022-11-09T08:43:11.116Z,12.79
2022-11-09T08:44:11.108Z,12.82
2022-11-09T08:45:11.150Z,12.62
2022-11-09T08:46:11.115Z,12.72
2022-11-09T08:47:11.106Z,12.71
2022-11-09T08:48:11.117Z,12.74
2022-11-09T08:49:11.138Z,12.77
2022-11-09T08:50:11.107Z,12.77
2022-11-09T08:51:11.139Z,12.68
2022-11-09T08:52:20.406Z,12.78
2022-11-09T08:53:11.095Z,12.82
2022-11-09T08:54:11.105Z,12.77
2022-11-09T08:55:11.118Z,12.71
2022-11-09T08:56:11.098Z,12.74
2022-11-09T08:57:11.100Z,12.72
2022-11-09T08:58:11.106Z,12.75
2022-11-09T08:59:11.105Z,12.67
2022-11-09T09:00:11.089Z,12.82
2022-11-09T09:01:16.742Z,12.72
2022-11-09T09:02:11.230Z,12.72
2022-11-09T09:03:11.081Z,12.77
2022-11-09T09:04:11.107Z,12.75
2022-11-09T09:05:11.087Z,12.85
2022-11-09T09:06:11.102Z,12.79
2022-11-09T09:07:14.828Z,12.82
2022-11-09T09:08:11.197Z,12.85
2022-11-09T09:09:11.782Z,12.92
2022-11-09T09:10:12.281Z,12.87
2022-11-09T09:11:11.164Z,12.90
2022-11-09T09:12:11.135Z,12.90
2022-11-09T09:13:11.116Z,12.96
2022-11-09T09:14:11.130Z,12.92
2022-11-09T09:15:11.086Z,13.08
2022-11-09T09:16:11.174Z,13.00
2022-11-09T09:17:11.156Z,13.04
2022-11-09T09:18:11.270Z,13.08
2022-11-09T09:19:11.077Z,13.04
2022-11-09T09:20:11.086Z,13.12
2022-11-09T09:21:11.082Z,13.15
2022-11-09T09:22:11.273Z,13.11
2022-11-09T09:23:11.184Z,13.15
2022-11-09T09:24:11.088Z,13.22
2022-11-09T09:25:11.115Z,13.19
2022-11-09T09:26:11.108Z,13.28
2022-11-09T09:27:11.174Z,13.33
2022-11-09T09:28:12.309Z,13.33
2022-11-09T09:29:11.181Z,13.28
2022-11-09T09:30:11.916Z,13.39
2022-11-09T09:31:14.344Z,13.32
2022-11-09T09:32:14.288Z,13.38
2022-11-09T09:33:11.064Z,13.41
2022-11-09T09:34:13.049Z,13.38
2022-11-09T09:35:11.310Z,13.48
2022-11-09T09:36:11.797Z,13.44
2022-11-09T09:37:12.288Z,13.46
2022-11-09T09:38:13.815Z,13.55
2022-11-09T09:39:11.239Z,13.60
2022-11-09T09:40:11.246Z,13.60
2022-11-09T09:41:12.514Z,13.69
2022-11-09T09:42:13.290Z,13.63
2022-11-09T09:43:11.119Z,13.70
2022-11-09T09:44:11.810Z,13.73
2022-11-09T09:45:11.230Z,13.71
2022-11-09T09:46:14.292Z,13.79
2022-11-09T09:47:12.798Z,13.87
2022-11-09T09:48:11.200Z,13.97
2022-11-09T09:49:12.371Z,13.91
2022-11-09T09:50:11.842Z,13.92
2022-11-09T09:51:12.492Z,13.87
2022-11-09T09:52:12.294Z,13.92
2022-11-09T09:53:23.716Z,13.89
2022-11-09T09:54:14.796Z,13.88
2022-11-09T09:55:12.304Z,13.82
2022-11-09T09:56:11.799Z,13.81
2022-11-09T09:57:14.299Z,13.78
2022-11-09T09:58:11.942Z,13.84
2022-11-09T09:59:11.265Z,13.88
2022-11-09T10:00:11.277Z,13.99
2022-11-09T10:01:11.818Z,13.97
2022-11-09T10:02:11.802Z,14.00
2022-11-09T10:03:11.181Z,13.99
2022-11-09T10:04:12.844Z,14.00
2022-11-09T10:05:11.038Z,13.92
2022-11-09T10:06:11.807Z,13.96
2022-11-09T10:07:11.097Z,13.87
2022-11-09T10:08:12.797Z,13.84
2022-11-09T10:09:12.818Z,13.85
2022-11-09T10:10:11.188Z,13.82
2022-11-09T10:11:11.192Z,13.85
2022-11-09T10:12:11.116Z,13.84
2022-11-09T10:13:13.803Z,13.84
2022-11-09T10:14:11.018Z,13.77
2022-11-09T10:15:11.155Z,13.78
2022-11-09T10:16:11.202Z,13.79
2022-11-09T10:17:11.012Z,13.87
2022-11-09T10:18:12.134Z,13.85
2022-11-09T10:19:11.074Z,13.78
2022-11-09T10:20:11.111Z,13.81
2022-11-09T10:21:11.801Z,13.82
2022-11-09T10:22:11.153Z,13.78
2022-11-09T10:23:12.968Z,13.88
2022-11-09T10:24:11.891Z,13.85
2022-11-09T10:25:23.766Z,13.84
2022-11-09T10:26:15.429Z,13.88
2022-11-09T10:27:11.808Z,13.92
2022-11-09T10:28:13.228Z,13.88
2022-11-09T10:29:18.454Z,13.99
2022-11-09T10:30:11.148Z,14.00
2022-11-09T10:31:11.809Z,14.00
2022-11-09T10:32:11.142Z,14.02
2022-11-09T10:33:11.196Z,14.02
2022-11-09T10:34:11.143Z,14.04
2022-11-09T10:35:11.150Z,14.03
2022-11-09T10:36:11.217Z,14.07
2022-11-09T10:37:11.016Z,14.10
2022-11-09T10:38:11.224Z,14.17
2022-11-09T10:39:11.174Z,14.14
2022-11-09T10:40:11.064Z,14.14
2022-11-09T10:41:11.228Z,14.24
2022-11-09T10:42:12.309Z,14.25
2022-11-09T10:43:13.342Z,14.28
2022-11-09T10:44:14.789Z,14.43
2022-11-09T10:45:11.100Z,14.45
2022-11-09T10:46:11.809Z,14.51
2022-11-09T10:47:15.836Z,14.64
2022-11-09T10:48:11.237Z,14.69
2022-11-09T10:49:11.091Z,14.72
2022-11-09T10:50:11.111Z,14.77
2022-11-09T10:51:11.218Z,14.91
2022-11-09T10:52:11.034Z,14.86
2022-11-09T10:53:11.112Z,14.89
2022-11-09T10:54:13.317Z,14.95
2022-11-09T10:55:11.815Z,14.98
2022-11-09T10:56:11.109Z,14.98
2022-11-09T10:57:11.109Z,15.14
2022-11-09T10:58:12.324Z,15.19
2022-11-09T10:59:11.820Z,15.41
2022-11-09T11:00:11.051Z,15.56
2022-11-09T11:01:11.204Z,15.60
2022-11-09T11:02:11.115Z,15.75
2022-11-09T11:03:11.156Z,15.87
2022-11-09T11:04:13.322Z,16.07
2022-11-09T11:05:10.984Z,16.17
2022-11-09T11:06:11.106Z,16.24
2022-11-09T11:07:13.202Z,16.31
2022-11-09T11:08:11.617Z,16.24
2022-11-09T11:09:11.180Z,16.27
2022-11-09T11:10:10.989Z,16.24
2022-11-09T11:11:32.734Z,16.30
2022-11-09T11:12:11.032Z,16.39
2022-11-09T11:13:11.189Z,16.49
2022-11-09T11:14:11.180Z,16.75
2022-11-09T11:15:11.828Z,16.79
2022-11-09T11:16:13.403Z,17.03
2022-11-09T11:17:13.325Z,17.04
2022-11-09T11:18:12.452Z,17.16
2022-11-09T11:19:10.995Z,17.26
2022-11-09T11:20:13.841Z,17.22
2022-11-09T11:21:16.074Z,17.41
2022-11-09T11:22:12.085Z,17.31
2022-11-09T11:23:11.025Z,17.51
2022-11-09T11:24:12.359Z,17.41
2022-11-09T11:25:11.018Z,17.37
2022-11-09T11:26:12.412Z,17.16
2022-11-09T11:27:13.399Z,17.18
2022-11-09T11:28:11.011Z,17.36
2022-11-09T11:29:11.110Z,17.46
2022-11-09T11:30:11.069Z,17.54
2022-11-09T11:31:11.829Z,17.52
2022-11-09T11:32:11.840Z,17.51
2022-11-09T11:33:11.938Z,17.54
2022-11-09T11:34:11.112Z,17.31
2022-11-09T11:35:15.353Z,17.21
2022-11-09T11:36:11.124Z,17.26
2022-11-09T11:37:11.063Z,17.18
2022-11-09T11:38:11.025Z,17.18
2022-11-09T11:39:11.035Z,16.98
2022-11-09T11:40:11.135Z,16.88
2022-11-09T11:41:18.335Z,16.94
2022-11-09T11:42:11.201Z,16.79
2022-11-09T11:44:11.158Z,16.81
2022-11-09T11:45:38.854Z,17.03
2022-11-09T11:46:13.833Z,17.04
2022-11-09T11:47:13.412Z,17.11
2022-11-09T11:49:11.852Z,17.25
2022-11-09T11:50:12.839Z,17.41
2022-11-09T11:51:11.854Z,17.37
2022-11-09T11:52:12.447Z,17.14
2022-11-09T11:53:11.105Z,17.18
2022-11-09T11:54:11.032Z,17.26
2022-11-09T11:55:11.040Z,17.31
2022-11-09T11:56:11.841Z,17.22
2022-11-09T11:57:11.029Z,17.19
2022-11-09T11:58:13.868Z,17.21
2022-11-09T11:59:11.858Z,17.00
2022-11-09T12:00:12.782Z,16.85
2022-11-09T12:01:13.847Z,16.57
2022-11-09T12:02:18.950Z,16.57
2022-11-09T12:03:18.543Z,16.45
2022-11-09T12:04:11.847Z,16.42
2022-11-09T12:05:11.185Z,16.46
2022-11-09T12:06:14.359Z,16.39
2022-11-09T12:07:15.893Z,16.45
2022-11-09T12:08:14.034Z,16.28
2022-11-09T12:09:11.279Z,16.25
2022-11-09T12:11:14.420Z,16.20
2022-11-09T12:12:15.352Z,16.23
2022-11-09T12:13:11.172Z,16.23
2022-11-09T12:14:13.922Z,16.23
2022-11-09T12:15:11.162Z,16.21
2022-11-09T12:16:12.050Z,16.20
2022-11-09T12:17:11.848Z,16.11
2022-11-09T12:18:12.362Z,16.09
2022-11-09T12:19:13.763Z,16.09
2022-11-09T12:20:13.977Z,16.08
2022-11-09T12:21:11.138Z,16.07
2022-11-09T12:22:17.360Z,16.04
2022-11-09T12:23:12.851Z,16.14
2022-11-09T12:24:11.033Z,16.17
2022-11-09T12:25:16.853Z,16.24
2022-11-09T12:26:15.468Z,16.33
2022-11-09T12:27:31.113Z,16.28
2022-11-09T12:28:11.113Z,16.31
2022-11-09T12:29:18.364Z,16.41
2022-11-09T12:30:11.112Z,16.38
2022-11-09T12:31:11.170Z,16.46
2022-11-09T12:32:17.356Z,16.43
2022-11-09T12:33:11.851Z,16.42
2022-11-09T12:35:13.356Z,16.48
2022-11-09T12:36:11.213Z,16.49
2022-11-09T12:37:16.882Z,16.46
2022-11-09T12:38:11.329Z,16.49
2022-11-09T12:39:12.648Z,16.46
2022-11-09T12:40:13.503Z,16.43
2022-11-09T12:41:13.215Z,16.58
2022-11-09T12:42:12.232Z,16.58
2022-11-09T12:43:12.397Z,16.58
2022-11-09T12:44:15.989Z,16.58
2022-11-09T12:45:14.396Z,16.57
2022-11-09T12:46:21.400Z,16.58
2022-11-09T12:47:11.561Z,16.57
2022-11-09T12:48:11.286Z,16.53
2022-11-09T12:49:12.318Z,16.60
2022-11-09T12:50:17.377Z,16.58
2022-11-09T12:51:13.920Z,16.60
2022-11-09T12:52:15.366Z,16.66
2022-11-09T12:53:14.830Z,16.58
2022-11-09T12:54:13.361Z,16.67
2022-11-09T12:55:23.936Z,16.60
2022-11-09T12:56:11.861Z,16.66
2022-11-09T12:59:16.407Z,16.56
2022-11-09T13:00:11.900Z,16.50
2022-11-09T13:01:17.403Z,16.57
2022-11-09T13:02:14.910Z,16.46
2022-11-09T13:03:11.884Z,16.58
2022-11-09T13:04:11.267Z,16.50